Time;durP1;ratioP1;P1;durP2;ratioP2;P2;SDS_P1;SDS_P2;PMS_P1;PMS_P2;Temp;Humidity;BMP_temperature;BMP_pressure;BME280_temperature;BME280_humidity;BME280_pressure;Samples;Min_cycle;Max_cycle;Signal;HPM_P1;HPM_P2
2023/01/28 00:01:06;;;;;;;5.88;4.75;;;;;;;-1.60;100.00;96287.28;5099980;28;24437;-73
2023/01/28 00:03:32;;;;;;;6.00;5.40;;;;;;;-1.49;100.00;96292.28;5097016;28;24457;-72
2023/01/28 00:06:04;;;;;;;6.55;5.60;;;;;;;-1.42;100.00;96291.38;5094372;28;24969;-74
2023/01/28 00:08:30;;;;;;;7.77;5.30;;;;;;;-1.51;100.00;96289.78;5094395;28;24507;-72
2023/01/28 00:10:59;;;;;;;10.98;5.07;;;;;;;-1.74;100.00;96281.47;5096838;28;24431;-73
2023/01/28 00:13:26;;;;;;;5.93;5.32;;;;;;;-1.77;100.00;96279.78;5095926;28;24483;-72
2023/01/28 00:15:55;;;;;;;7.00;5.53;;;;;;;-1.71;100.00;96276.34;5098212;28;24433;-73
2023/01/28 00:18:21;;;;;;;5.18;4.68;;;;;;;-1.66;100.00;96282.25;5095177;28;24433;-70
2023/01/28 00:20:56;;;;;;;5.33;4.83;;;;;;;-1.74;100.00;96276.41;5098825;28;24430;-70
2023/01/28 00:23:24;;;;;;;4.88;4.47;;;;;;;-1.68;100.00;96281.41;5090216;28;24434;-70
2023/01/28 00:25:50;;;;;;;5.27;4.77;;;;;;;-1.69;100.00;96289.06;5095295;28;24995;-70
2023/01/28 00:28:17;;;;;;;5.68;5.05;;;;;;;-1.75;100.00;96284.84;5099669;28;24834;-70
2023/01/28 00:30:43;;;;;;;5.97;5.38;;;;;;;-1.74;100.00;96287.41;5101571;28;24429;-71
2023/01/28 00:33:10;;;;;;;5.43;4.88;;;;;;;-1.63;100.00;96283.91;5091697;28;24441;-70
2023/01/28 00:35:36;;;;;;;6.57;4.90;;;;;;;-1.71;100.00;96289.06;5101394;28;24441;-70
2023/01/28 00:38:03;;;;;;;5.80;5.20;;;;;;;-1.83;100.00;96287.44;5097392;28;24457;-70
2023/01/28 00:40:31;;;;;;;5.23;4.73;;;;;;;-1.65;100.00;96280.56;5104343;28;24540;-70
2023/01/28 00:42:58;;;;;;;5.90;5.07;;;;;;;-1.58;100.00;96284.75;5099443;28;24442;-70
2023/01/28 00:45:24;;;;;;;8.70;5.32;;;;;;;-1.48;100.00;96294.00;5102840;28;24441;-70
2023/01/28 00:47:51;;;;;;;5.18;4.75;;;;;;;-1.31;100.00;96284.53;5102949;28;24966;-70
2023/01/28 00:50:20;;;;;;;6.32;4.57;;;;;;;-1.56;100.00;96277.94;5094397;28;24812;-70
2023/01/28 00:52:47;;;;;;;4.45;4.05;;;;;;;-1.65;100.00;96285.66;5090959;28;24466;-70
2023/01/28 00:55:14;;;;;;;5.38;4.88;;;;;;;-1.67;100.00;96282.25;5098447;28;24427;-71
2023/01/28 00:57:41;;;;;;;5.83;5.00;;;;;;;-1.72;100.00;96282.28;5101101;28;24467;-71
2023/01/28 01:00:09;;;;;;;5.50;5.00;;;;;;;-1.80;100.00;96287.44;5087826;28;24433;-70
2023/01/28 01:02:36;;;;;;;6.03;5.43;;;;;;;-1.68;100.00;96278.88;5097924;28;24838;-70
2023/01/28 01:05:02;;;;;;;7.63;5.70;;;;;;;-1.77;100.00;96277.25;5101209;28;24437;-70
2023/01/28 01:07:40;;;;;;;6.47;5.43;;;;;;;-1.79;100.00;96278.94;5082835;28;24441;-71
2023/01/28 01:10:08;;;;;;;6.00;5.40;;;;;;;-1.86;100.00;96277.28;5088218;28;24448;-71
2023/01/28 01:12:35;;;;;;;7.63;5.18;;;;;;;-1.73;100.00;96278.91;5088432;28;24430;-72
2023/01/28 01:15:03;;;;;;;6.32;5.38;;;;;;;-1.63;100.00;96278.84;5104909;28;24442;-70
2023/01/28 01:17:30;;;;;;;6.45;5.35;;;;;;;-1.77;100.00;96279.78;5092287;28;24453;-70
2023/01/28 01:19:57;;;;;;;5.67;5.17;;;;;;;-1.68;100.00;96270.41;5091823;28;25009;-70
2023/01/28 01:22:23;;;;;;;7.55;5.30;;;;;;;-1.72;100.00;96283.13;5094898;28;24434;-70
2023/01/28 01:24:50;;;;;;;6.13;5.22;;;;;;;-1.57;100.00;96278.81;5094224;28;24431;-70
2023/01/28 01:27:16;;;;;;;8.30;5.32;;;;;;;-1.66;100.00;96283.97;5101955;28;24971;-70
2023/01/28 01:29:43;;;;;;;6.03;5.38;;;;;;;-1.64;100.00;96279.69;5100184;28;24433;-70
2023/01/28 01:32:10;;;;;;;6.43;4.88;;;;;;;-1.66;100.00;96282.25;5103702;28;24440;-71
2023/01/28 01:34:37;;;;;;;6.07;4.72;;;;;;;-1.65;100.00;96285.66;5094232;28;25015;-70
2023/01/28 01:37:05;;;;;;;6.00;4.78;;;;;;;-1.59;100.00;96288.16;5098333;28;24841;-70
2023/01/28 01:39:31;;;;;;;7.55;5.22;;;;;;;-1.50;100.00;96293.16;5101095;28;24486;-71
2023/01/28 01:41:58;;;;;;;5.30;4.80;;;;;;;-1.64;100.00;96288.16;5101244;28;24441;-70
2023/01/28 01:44:55;;;;;;;5.70;4.80;;;;;;;-1.47;100.00;96285.50;5095536;28;24448;-70
2023/01/28 01:47:25;;;;;;;8.57;5.10;;;;;;;-1.67;100.00;96290.72;5088899;28;24436;-70
2023/01/28 01:49:52;;;;;;;5.13;4.63;;;;;;;-1.77;100.00;96296.72;5091881;28;25019;-70
2023/01/28 01:52:23;;;;;;;5.45;4.68;;;;;;;-1.69;100.00;96289.91;5088560;28;24435;-70
2023/01/28 01:54:54;;;;;;;4.88;4.35;;;;;;;-1.63;100.00;96296.63;5093021;28;24427;-70
2023/01/28 01:57:24;;;;;;;4.80;4.40;;;;;;;-1.63;100.00;96294.94;5089823;28;24457;-70
2023/01/28 01:59:51;;;;;;;6.18;4.32;;;;;;;-1.50;100.00;96301.59;5098578;28;24982;-70
2023/01/28 02:02:18;;;;;;;5.78;4.57;;;;;;;-1.58;100.00;96300.81;5096859;28;24428;-70
2023/01/28 02:04:46;;;;;;;4.73;4.23;;;;;;;-1.67;100.00;96303.41;5096448;28;24541;-70
2023/01/28 02:07:14;;;;;;;5.18;4.47;;;;;;;-1.66;100.00;96296.66;5094144;28;24422;-71
2023/01/28 02:09:41;;;;;;;4.63;4.17;;;;;;;-1.65;100.00;96293.25;5094041;28;24433;-70
2023/01/28 02:12:12;;;;;;;7.22;4.50;;;;;;;-1.50;100.00;96296.53;5095847;28;24425;-70
2023/01/28 02:14:44;;;;;;;5.43;4.93;;;;;;;-1.44;100.00;96294.81;5100635;28;24537;-71
2023/01/28 02:17:10;;;;;;;5.75;4.75;;;;;;;-1.63;100.00;96291.53;5094833;28;24507;-70
2023/01/28 02:19:48;;;;;;;5.13;4.63;;;;;;;-1.74;100.00;96284.84;5101272;28;24456;-70
2023/01/28 02:22:29;;;;;;;5.45;4.43;;;;;;;-1.79;100.00;96293.34;5094895;28;24433;-70
2023/01/28 02:25:26;;;;;;;5.85;5.13;;;;;;;-1.71;100.00;96289.06;5099965;28;24433;-70
2023/01/28 02:28:13;;;;;;;5.73;4.57;;;;;;;-1.72;100.00;96295.84;5098652;28;25176;-70
2023/01/28 02:30:43;;;;;;;5.47;4.70;;;;;;;-1.72;100.00;96300.91;5102629;28;24436;-70
2023/01/28 02:33:18;;;;;;;6.40;5.13;;;;;;;-1.31;100.00;96299.78;5097284;28;24446;-70
2023/01/28 02:35:49;;;;;;;5.75;5.15;;;;;;;-1.52;100.00;96294.84;5095377;28;24484;-71
2023/01/28 02:38:21;;;;;;;7.00;5.38;;;;;;;-1.66;100.00;96287.34;5095538;28;24450;-71
2023/01/28 02:41:05;;;;;;;6.60;5.13;;;;;;;-1.77;100.00;96287.41;5084109;28;24441;-70
2023/01/28 02:43:36;;;;;;;5.20;4.70;;;;;;;-1.78;100.00;96292.47;5098912;28;24434;-70
2023/01/28 02:48:58;;;;;;;6.18;5.20;;;;;;;-1.70;100.00;96298.38;5096255;28;24445;-71
2023/01/28 02:51:37;;;;;;;5.43;4.90;;;;;;;-1.63;100.00;96302.56;5086049;28;25002;-70
2023/01/28 02:54:10;;;;;;;4.88;4.45;;;;;;;-1.52;100.00;96300.78;5099821;28;24434;-70
2023/01/28 02:56:45;;;;;;;5.60;4.72;;;;;;;-1.64;100.00;96293.25;5081494;28;24429;-70
2023/01/28 02:59:32;;;;;;;6.20;4.68;;;;;;;-1.66;100.00;96304.28;5089352;28;24433;-70
2023/01/28 03:02:08;;;;;;;5.85;5.10;;;;;;;-1.62;100.00;96303.41;5093082;28;24434;-70
2023/01/28 03:04:42;;;;;;;5.15;4.53;;;;;;;-1.63;100.00;96300.03;5090785;28;24441;-70
2023/01/28 03:07:11;;;;;;;7.55;5.22;;;;;;;-1.22;100.00;96309.03;5085311;28;24433;-70
2023/01/28 03:09:41;;;;;;;5.18;4.68;;;;;;;-1.24;100.00;96309.03;5091672;28;24483;-70
2023/01/28 03:37:28;;;;;;;6.10;5.27;;;;;;;-1.46;100.00;96307.50;5097436;28;24506;-72
2023/01/28 03:39:56;;;;;;;8.88;5.35;;;;;;;-1.36;100.00;96319.31;5091218;28;24863;-71
2023/01/28 03:42:23;;;;;;;5.80;5.30;;;;;;;-1.39;100.00;96321.84;5097492;28;24429;-71
2023/01/28 03:44:49;;;;;;;6.88;5.68;;;;;;;-1.57;100.00;96319.44;5092171;28;24438;-73
2023/01/28 03:47:18;;;;;;;7.20;5.25;;;;;;;-1.43;100.00;96322.75;5098628;28;24449;-72
2023/01/28 03:49:48;;;;;;;5.80;5.30;;;;;;;-1.46;100.00;96327.84;5093797;28;24435;-71
2023/01/28 03:52:17;;;;;;;6.78;5.68;;;;;;;-1.56;100.00;96333.81;5086714;28;24437;-72
2023/01/28 03:54:46;;;;;;;6.38;5.68;;;;;;;-1.56;100.00;96326.19;5095753;28;25115;-72
2023/01/28 03:57:12;;;;;;;7.72;6.20;;;;;;;-1.65;100.00;96323.75;5087482;28;24456;-72
2023/01/28 03:59:39;;;;;;;6.60;6.00;;;;;;;-1.67;100.00;96322.88;5097700;28;25001;-72
2023/01/28 04:02:06;;;;;;;6.68;6.05;;;;;;;-1.68;100.00;96331.38;5090478;28;24768;-72
2023/01/28 04:04:33;;;;;;;8.02;6.18;;;;;;;-1.71;100.00;96325.47;5100331;28;25035;-72
2023/01/28 04:07:00;;;;;;;6.22;5.63;;;;;;;-1.53;100.00;96321.94;5086894;28;24426;-72
2023/01/28 04:09:26;;;;;;;5.47;4.97;;;;;;;-1.48;100.00;96324.47;5093589;28;24981;-72
2023/01/28 04:11:53;;;;;;;6.38;5.28;;;;;;;-1.35;100.00;96317.59;5090758;28;24976;-72
2023/01/28 04:14:19;;;;;;;6.13;5.53;;;;;;;-1.33;100.00;96319.28;5094088;28;25026;-72
2023/01/28 04:16:46;;;;;;;6.28;5.68;;;;;;;-1.43;100.00;96327.81;5095936;28;24517;-70
2023/01/28 04:19:13;;;;;;;6.15;5.55;;;;;;;-1.35;100.00;96322.69;5102596;28;24432;-70
2023/01/28 04:21:41;;;;;;;6.90;6.20;;;;;;;-1.35;100.00;96331.16;5092885;28;24512;-70
2023/01/28 04:24:08;;;;;;;6.28;5.68;;;;;;;-1.30;100.00;96323.47;5094307;28;24437;-70
2023/01/28 04:26:34;;;;;;;5.90;5.38;;;;;;;-1.47;100.00;96328.69;5089859;28;24453;-70
2023/01/28 04:29:02;;;;;;;7.80;5.70;;;;;;;-1.43;100.00;96335.44;5099094;28;24431;-70
2023/01/28 04:31:28;;;;;;;6.43;5.75;;;;;;;-1.41;100.00;96341.34;5097361;28;24437;-70
2023/01/28 04:33:55;;;;;;;8.13;6.57;;;;;;;-1.51;100.00;96342.28;5091154;28;24441;-71
2023/01/28 04:36:21;;;;;;;5.78;5.28;;;;;;;-1.52;100.00;96343.09;5097054;28;24437;-70
2023/01/28 04:38:49;;;;;;;5.72;5.05;;;;;;;-1.50;100.00;96342.25;5092037;28;24859;-71
2023/01/28 04:41:16;;;;;;;7.35;5.63;;;;;;;-1.46;100.00;96341.38;5104312;28;24434;-70
2023/01/28 04:43:42;;;;;;;6.38;5.70;;;;;;;-1.27;100.00;96338.72;5098304;28;24437;-70
2023/01/28 04:46:10;;;;;;;6.55;5.95;;;;;;;-1.46;100.00;96350.69;5105081;28;24525;-71
2023/01/28 04:48:37;;;;;;;5.55;5.05;;;;;;;-1.52;100.00;96343.09;5092644;28;24433;-70
2023/01/28 04:51:03;;;;;;;6.40;5.80;;;;;;;-1.51;100.00;96352.44;5098276;28;24433;-70
2023/01/28 04:53:30;;;;;;;6.85;6.22;;;;;;;-1.39;100.00;96349.81;5099712;28;24442;-71
2023/01/28 04:55:58;;;;;;;7.18;6.47;;;;;;;-1.12;100.00;96346.22;5097553;28;24441;-71
2023/01/28 04:58:25;;;;;;;6.82;5.82;;;;;;;-1.30;100.00;96349.75;5103456;28;24472;-72
2023/01/28 05:00:55;;;;;;;6.83;5.90;;;;;;;-1.15;100.00;96346.25;5092370;28;24497;-71
2023/01/28 05:03:22;;;;;;;6.40;5.70;;;;;;;-1.20;100.00;96349.69;5103484;28;25050;-71
2023/01/28 05:05:48;;;;;;;5.60;5.13;;;;;;;-1.18;100.00;96356.44;5089623;28;24445;-72
2023/01/28 05:08:15;;;;;;;6.05;5.45;;;;;;;-1.35;100.00;96359.09;5097080;28;24986;-71
2023/01/28 05:10:42;;;;;;;6.57;5.90;;;;;;;-1.34;100.00;96353.16;5095771;28;24426;-72
2023/01/28 05:13:10;;;;;;;7.45;6.20;;;;;;;-1.12;100.00;96360.63;5088671;28;24425;-72
2023/01/28 05:15:36;;;;;;;7.97;6.05;;;;;;;-1.32;100.00;96365.84;5097886;28;24434;-72
2023/01/28 05:18:03;;;;;;;6.30;5.47;;;;;;;-1.40;100.00;96365.91;5090250;28;24439;-71
2023/01/28 05:20:30;;;;;;;6.00;5.40;;;;;;;-1.26;100.00;96360.72;5099351;28;24432;-72
2023/01/28 05:22:56;;;;;;;6.75;6.05;;;;;;;-1.28;100.00;96363.28;5102197;28;24441;-72
2023/01/28 05:25:22;;;;;;;6.50;5.80;;;;;;;-1.34;100.00;96363.31;5104004;28;24426;-72
2023/01/28 05:27:51;;;;;;;6.38;5.78;;;;;;;-1.36;100.00;96361.66;5099426;28;25013;-72
2023/01/28 05:30:19;;;;;;;6.53;5.55;;;;;;;-1.38;100.00;96363.34;5104231;28;24513;-72
2023/01/28 05:32:46;;;;;;;7.20;6.03;;;;;;;-1.19;100.00;96356.44;5102442;28;24433;-72
2023/01/28 05:35:12;;;;;;;8.75;6.38;;;;;;;-1.14;100.00;96358.09;5100418;28;24437;-72
2023/01/28 05:37:39;;;;;;;10.75;6.45;;;;;;;-1.16;100.00;96354.72;5102653;28;24450;-72
2023/01/28 05:40:06;;;;;;;7.60;6.90;;;;;;;-1.24;100.00;96366.66;5090108;28;24452;-72
2023/01/28 05:42:33;;;;;;;8.20;6.35;;;;;;;-1.43;100.00;96371.00;5100495;28;24430;-72
2023/01/28 05:44:59;;;;;;;9.02;7.07;;;;;;;-1.11;100.00;96370.78;5094511;28;24434;-72
2023/01/28 05:47:27;;;;;;;8.43;7.23;;;;;;;-1.27;100.00;96376.81;5100140;28;24525;-71
2023/01/28 05:49:54;;;;;;;8.75;6.82;;;;;;;-1.25;100.00;96373.44;5097427;28;24979;-72
2023/01/28 05:52:20;;;;;;;7.65;6.93;;;;;;;-1.13;100.00;96379.28;5094417;28;24428;-71
2023/01/28 05:54:47;;;;;;;8.55;7.07;;;;;;;-1.05;100.00;96380.91;5097171;28;25002;-73
2023/01/28 05:57:13;;;;;;;8.52;7.47;;;;;;;-0.97;100.00;96383.38;5097148;28;24435;-72
2023/01/28 05:59:40;;;;;;;9.15;7.38;;;;;;;-1.12;100.00;96379.25;5098428;28;24453;-72
2023/01/28 06:02:06;;;;;;;9.63;6.93;;;;;;;-1.17;100.00;96377.63;5097655;28;24425;-71
2023/01/28 06:04:34;;;;;;;7.97;7.18;;;;;;;-1.26;100.00;96392.09;5103956;28;24441;-73
2023/01/28 06:07:01;;;;;;;8.85;7.70;;;;;;;-1.07;100.00;96391.94;5086862;28;24434;-72
2023/01/28 06:09:27;;;;;;;8.80;7.90;;;;;;;-1.20;100.00;96390.34;5091238;28;24815;-72
2023/01/28 06:11:54;;;;;;;8.40;7.50;;;;;;;-0.98;100.00;96397.78;5095934;28;24441;-72
2023/01/28 06:14:20;;;;;;;8.30;7.43;;;;;;;-1.09;100.00;96393.66;5092167;28;24453;-71
2023/01/28 06:16:47;;;;;;;9.47;8.07;;;;;;;-1.13;100.00;96412.31;5091485;28;24825;-71
2023/01/28 06:19:13;;;;;;;9.35;7.55;;;;;;;-1.19;100.00;96409.81;5084666;28;24454;-71
2023/01/28 06:21:42;;;;;;;9.77;8.45;;;;;;;-1.02;100.00;96415.63;5090866;28;24430;-72
2023/01/28 06:24:09;;;;;;;8.40;7.60;;;;;;;-1.10;100.00;96417.41;5096526;28;24434;-72
2023/01/28 06:26:35;;;;;;;8.77;7.85;;;;;;;-1.08;100.00;96418.22;5090811;28;24441;-73
2023/01/28 06:29:02;;;;;;;9.57;8.57;;;;;;;-1.19;100.00;96418.28;5099544;28;24795;-72
2023/01/28 06:31:28;;;;;;;10.27;7.47;;;;;;;-1.33;100.00;96423.47;5098739;28;24434;-72
2023/01/28 06:33:55;;;;;;;10.80;8.07;;;;;;;-1.29;100.00;96419.22;5099953;28;24437;-72
2023/01/28 06:36:21;;;;;;;9.90;8.00;;;;;;;-1.30;100.00;96423.44;5097518;28;24483;-71
2023/01/28 06:38:49;;;;;;;10.63;7.82;;;;;;;-1.45;100.00;96426.06;5096629;28;24456;-72
2023/01/28 06:41:15;;;;;;;9.93;7.23;;;;;;;-1.20;100.00;96416.59;5095318;28;24485;-71
2023/01/28 06:43:42;;;;;;;8.27;7.25;;;;;;;-1.30;100.00;96423.44;5092427;28;24438;-72
2023/01/28 06:46:08;;;;;;;8.07;7.05;;;;;;;-1.19;100.00;96432.69;5086146;28;24426;-72
2023/01/28 06:48:35;;;;;;;10.82;7.55;;;;;;;-1.10;100.00;96435.19;5095391;28;24991;-72
2023/01/28 06:51:01;;;;;;;9.38;7.60;;;;;;;-1.30;100.00;96437.84;5085015;28;24793;-72
2023/01/28 06:53:28;;;;;;;9.82;8.05;;;;;;;-1.30;100.00;96438.69;5097636;28;24446;-71
2023/01/28 06:55:56;;;;;;;11.70;8.00;;;;;;;-1.17;100.00;96443.69;5087263;28;24781;-72
2023/01/28 06:58:22;;;;;;;10.57;7.70;;;;;;;-1.34;100.00;96446.31;5098594;28;24457;-71
2023/01/28 07:00:49;;;;;;;8.90;8.00;;;;;;;-1.03;100.00;96436.84;5094498;28;24433;-72
2023/01/28 07:03:16;;;;;;;12.02;8.43;;;;;;;-1.06;100.00;96436.84;5101510;28;24436;-72
2023/01/28 07:05:42;;;;;;;10.02;8.38;;;;;;;-1.30;100.00;96437.84;5088610;28;24431;-71
2023/01/28 07:08:08;;;;;;;9.18;8.27;;;;;;;-1.36;100.00;96441.25;5093247;28;24854;-72
2023/01/28 07:10:35;;;;;;;9.80;8.23;;;;;;;-1.32;100.00;96430.22;5095713;28;24433;-72
2023/01/28 07:13:03;;;;;;;9.30;8.32;;;;;;;-1.16;100.00;96430.13;5093033;28;24445;-71
2023/01/28 07:15:30;;;;;;;8.95;8.05;;;;;;;-1.34;100.00;96436.16;5101760;28;24539;-71
2023/01/28 07:17:56;;;;;;;9.80;8.80;;;;;;;-1.38;100.00;96444.66;5087972;28;24437;-72
2023/01/28 07:20:22;;;;;;;9.32;8.25;;;;;;;-1.30;100.00;96435.28;5097589;28;24434;-71
2023/01/28 07:22:49;;;;;;;8.82;7.93;;;;;;;-1.38;100.00;96444.66;5089890;28;24991;-72
2023/01/28 07:25:16;;;;;;;8.95;8.05;;;;;;;-1.30;100.00;96442.91;5101524;28;24804;-71
2023/01/28 07:27:48;;;;;;;8.20;7.40;;;;;;;-1.19;100.00;96446.22;5089648;28;24431;-73
2023/01/28 07:30:17;;;;;;;8.57;7.78;;;;;;;-1.41;100.00;96453.13;5101600;28;24444;-72
2023/01/28 07:32:44;;;;;;;9.20;8.13;;;;;;;-1.21;100.00;96450.50;5099886;28;24440;-73
2023/01/28 07:35:10;;;;;;;10.25;8.10;;;;;;;-1.09;100.00;96454.66;5090153;28;24430;-72
2023/01/28 07:37:37;;;;;;;11.77;8.20;;;;;;;-1.32;100.00;96458.19;5101111;28;24566;-72
2023/01/28 07:40:04;;;;;;;9.00;8.15;;;;;;;-1.23;100.00;96457.28;5096087;28;25058;-72
2023/01/28 07:42:31;;;;;;;8.60;7.72;;;;;;;-1.30;100.00;96460.69;5100889;28;24993;-72
2023/01/28 07:44:58;;;;;;;8.82;7.85;;;;;;;-1.34;100.00;96462.41;5089008;28;24537;-72
2023/01/28 07:47:26;;;;;;;7.57;6.88;;;;;;;-1.36;100.00;96460.75;5096569;28;24433;-72
2023/01/28 07:49:52;;;;;;;11.43;7.47;;;;;;;-1.18;100.00;96464.91;5087001;28;24442;-72
2023/01/28 07:52:18;;;;;;;9.82;8.07;;;;;;;-1.28;100.00;96470.00;5085981;28;24437;-72
2023/01/28 07:54:45;;;;;;;9.85;8.07;;;;;;;-1.20;100.00;96469.13;5093172;28;24441;-72
2023/01/28 07:57:11;;;;;;;8.52;7.63;;;;;;;-1.26;100.00;96470.00;5090622;28;24437;-72
2023/01/28 07:59:38;;;;;;;9.50;8.07;;;;;;;-1.19;100.00;96481.81;5092708;28;24450;-71
2023/01/28 08:02:04;;;;;;;10.18;8.50;;;;;;;-1.11;100.00;96482.66;5094550;28;24430;-72
2023/01/28 08:04:32;;;;;;;9.60;8.18;;;;;;;-1.13;100.00;96491.97;5100517;28;24441;-72
2023/01/28 08:06:58;;;;;;;10.02;8.68;;;;;;;-1.00;100.00;96485.13;5092136;28;24437;-72
2023/01/28 08:09:25;;;;;;;11.85;8.68;;;;;;;-0.95;100.00;96490.19;5098023;28;24430;-72
2023/01/28 08:11:51;;;;;;;11.70;9.15;;;;;;;-0.98;100.00;96489.31;5089967;28;24469;-72
2023/01/28 08:14:18;;;;;;;11.45;8.93;;;;;;;-1.12;100.00;96487.72;5098532;28;24434;-71
2023/01/28 08:16:44;;;;;;;9.83;8.83;;;;;;;-1.06;100.00;96488.53;5105526;28;24429;-72
2023/01/28 08:19:11;;;;;;;10.23;9.13;;;;;;;-1.05;100.00;96508.00;5102247;28;24472;-71
2023/01/28 08:21:39;;;;;;;10.35;9.35;;;;;;;-1.06;100.00;96493.63;5105556;28;24490;-72
2023/01/28 08:24:06;;;;;;;9.83;8.83;;;;;;;-0.86;100.00;96495.19;5101664;28;24441;-72
2023/01/28 08:26:32;;;;;;;9.85;8.93;;;;;;;-0.90;100.00;96503.69;5105971;28;24456;-72
2023/01/28 08:28:59;;;;;;;8.98;8.13;;;;;;;-0.95;100.00;96501.19;5099820;28;24429;-72
2023/01/28 08:31:25;;;;;;;9.80;8.77;;;;;;;-0.98;100.00;96509.66;5097634;28;24441;-72
2023/01/28 08:33:52;;;;;;;9.70;8.80;;;;;;;-0.91;100.00;96510.47;5093045;28;24435;-72
2023/01/28 08:36:19;;;;;;;9.95;8.95;;;;;;;-0.92;100.00;96497.78;5102315;28;24449;-72
2023/01/28 08:38:46;;;;;;;9.07;8.27;;;;;;;-0.93;100.00;96499.47;5090515;28;24515;-72
2023/01/28 08:41:13;;;;;;;9.85;8.90;;;;;;;-0.73;100.00;96506.97;5104901;28;24494;-72
2023/01/28 08:43:39;;;;;;;12.43;9.05;;;;;;;-0.57;100.00;96506.00;5091525;28;24438;-72
2023/01/28 08:46:06;;;;;;;11.40;9.48;;;;;;;-0.71;100.00;96507.78;5098402;28;24426;-72
2023/01/28 08:48:33;;;;;;;9.90;8.95;;;;;;;-0.59;100.00;96499.25;5090125;28;25061;-72
2023/01/28 08:50:59;;;;;;;10.32;9.00;;;;;;;-0.79;100.00;96505.31;5089408;28;24469;-72
2023/01/28 08:53:26;;;;;;;9.93;9.02;;;;;;;-0.78;100.00;96503.59;5096199;28;24461;-72
2023/01/28 08:55:54;;;;;;;9.20;8.32;;;;;;;-1.00;100.00;96501.22;5091087;28;24441;-74
2023/01/28 08:58:20;;;;;;;9.85;8.82;;;;;;;-1.10;100.00;96511.44;5103542;28;24516;-71
2023/01/28 09:00:47;;;;;;;10.50;9.30;;;;;;;-0.73;100.00;96510.38;5098283;28;24432;-72
2023/01/28 09:03:14;;;;;;;18.73;9.82;;;;;;;-0.82;100.00;96512.94;5103654;28;24438;-72
2023/01/28 09:05:41;;;;;;;11.07;9.43;;;;;;;-0.77;100.00;96511.25;5099952;28;24504;-72
2023/01/28 09:08:09;;;;;;;11.57;9.38;;;;;;;-0.88;100.00;96512.16;5095737;28;24992;-71
2023/01/28 09:10:37;;;;;;;11.25;9.30;;;;;;;-0.67;100.00;96513.72;5101034;28;25023;-71
2023/01/28 09:13:09;;;;;;;10.98;9.85;;;;;;;-0.81;100.00;96509.56;5087930;28;24442;-73
2023/01/28 09:15:36;;;;;;;10.27;9.18;;;;;;;-0.83;100.00;96516.34;5100799;28;24784;-71
2023/01/28 09:18:03;;;;;;;10.68;9.25;;;;;;;-0.73;100.00;96518.00;5097278;28;24444;-71
2023/01/28 09:20:31;;;;;;;10.95;9.65;;;;;;;-0.47;100.00;96519.50;5103716;28;24472;-72
2023/01/28 09:22:58;;;;;;;10.27;8.70;;;;;;;-0.57;100.00;96528.06;5091031;28;24850;-72
2023/01/28 09:25:25;;;;;;;12.25;10.02;;;;;;;-0.37;100.00;96533.00;5100303;28;24511;-72
2023/01/28 09:27:51;;;;;;;10.75;9.70;;;;;;;-0.36;100.00;96530.44;5095132;28;24453;-72
2023/01/28 09:30:19;;;;;;;13.43;9.48;;;;;;;-0.55;100.00;96531.44;5103845;28;24495;-72
2023/01/28 09:32:49;;;;;;;12.45;9.32;;;;;;;-0.64;100.00;96534.88;5101361;28;24456;-72
2023/01/28 09:35:16;;;;;;;11.13;9.07;;;;;;;-0.54;100.00;96540.75;5094463;28;24433;-73
2023/01/28 09:37:43;;;;;;;10.63;9.52;;;;;;;-0.55;100.00;96542.47;5096876;28;24781;-72
2023/01/28 09:40:15;;;;;;;10.63;9.43;;;;;;;-0.44;100.00;96546.66;5092468;28;24453;-73
2023/01/28 09:42:54;;;;;;;10.40;9.35;;;;;;;-0.74;100.00;96536.66;5097660;28;24940;-73
2023/01/28 09:45:25;;;;;;;10.77;9.68;;;;;;;-0.73;100.00;96547.69;5093170;28;24996;-74
2023/01/28 09:47:54;;;;;;;9.95;9.02;;;;;;;-0.42;100.00;96550.00;5101358;28;24448;-73
2023/01/28 09:50:31;;;;;;;11.45;9.23;;;;;;;-0.43;100.00;96554.25;5085248;28;24530;-74
2023/01/28 09:53:02;;;;;;;13.10;9.20;;;;;;;-0.60;100.00;96559.44;5098938;28;24789;-74
2023/01/28 09:55:33;;;;;;;10.02;8.68;;;;;;;-0.53;100.00;96562.81;5085885;28;24528;-74
2023/01/28 09:57:59;;;;;;;9.93;8.90;;;;;;;-0.68;100.00;96553.56;5098061;28;24785;-72
2023/01/28 10:00:32;;;;;;;10.52;9.48;;;;;;;-0.63;100.00;96558.63;5089807;28;24454;-73
2023/01/28 10:03:18;;;;;;;11.82;10.25;;;;;;;-0.55;100.00;96564.53;5098529;28;24434;-73
2023/01/28 10:05:56;;;;;;;10.75;9.65;;;;;;;-0.63;100.00;96561.16;5088688;28;24516;-73
2023/01/28 10:08:37;;;;;;;11.73;10.52;;;;;;;-0.41;100.00;96559.31;5083554;28;24440;-74
2023/01/28 10:11:14;;;;;;;12.32;10.60;;;;;;;-0.32;100.00;96552.47;5093763;28;24430;-74
2023/01/28 10:13:48;;;;;;;12.93;10.60;;;;;;;-0.60;100.00;96556.91;5091620;28;24796;-73
2023/01/28 10:16:26;;;;;;;13.87;10.90;;;;;;;-0.53;100.00;96552.63;5088930;28;24430;-73
2023/01/28 10:19:00;;;;;;;11.98;10.82;;;;;;;-0.49;100.00;96550.03;5096061;28;24433;-74
2023/01/28 10:21:32;;;;;;;12.75;10.90;;;;;;;-0.55;100.00;96546.72;5093740;28;24430;-74
2023/01/28 10:24:03;;;;;;;11.57;10.38;;;;;;;-0.63;100.00;96544.22;5095841;28;24444;-74
2023/01/28 10:26:35;;;;;;;12.48;11.27;;;;;;;-0.68;100.00;96551.03;5094130;28;24998;-73
2023/01/28 10:29:13;;;;;;;12.40;10.85;;;;;;;-0.66;100.00;96546.78;5099946;28;24439;-74
2023/01/28 10:31:47;;;;;;;13.70;10.73;;;;;;;-0.63;100.00;96543.34;5095190;28;24445;-73
2023/01/28 10:34:13;;;;;;;12.57;10.85;;;;;;;-0.67;100.00;96537.44;5079633;28;24994;-73
2023/01/28 10:36:40;;;;;;;12.10;10.80;;;;;;;-0.69;100.00;96536.63;5091805;28;24454;-74
2023/01/28 10:39:07;;;;;;;13.27;10.40;;;;;;;-0.43;100.00;96539.00;5094336;28;24453;-74
2023/01/28 10:41:34;;;;;;;11.02;9.73;;;;;;;-0.22;100.00;96532.91;5098783;28;24557;-74
2023/01/28 10:44:01;;;;;;;13.05;10.73;;;;;;;-0.42;100.00;96539.81;5094405;28;25003;-73
2023/01/28 10:46:31;;;;;;;13.57;11.07;;;;;;;-0.59;100.00;96532.34;5083309;28;24986;-73
2023/01/28 10:49:06;;;;;;;12.80;10.38;;;;;;;-0.66;100.00;96534.06;5096200;28;24899;-74
2023/01/28 10:51:37;;;;;;;10.93;9.77;;;;;;;-0.33;100.00;96537.22;5081861;28;24433;-74
2023/01/28 10:54:17;;;;;;;13.23;10.63;;;;;;;-0.03;100.00;96539.50;5097481;28;25013;-73
2023/01/28 10:56:44;;;;;;;12.20;11.00;;;;;;;-0.23;100.00;96543.91;5079672;28;24434;-73
2023/01/28 10:59:20;;;;;;;12.40;11.10;;;;;;;-0.15;100.00;96546.38;5100281;28;24433;-73
2023/01/28 11:01:50;;;;;;;13.77;10.32;;;;;;;-0.30;100.00;96544.81;5085533;28;24781;-73
2023/01/28 11:04:24;;;;;;;11.48;10.27;;;;;;;-0.41;100.00;96546.59;5100136;28;24436;-73
2023/01/28 11:06:56;;;;;;;13.25;11.00;;;;;;;-0.51;100.00;96545.84;5078544;28;24526;-73
2023/01/28 11:09:25;;;;;;;10.88;9.73;;;;;;;-0.44;100.00;96533.94;5092786;28;25006;-74
2023/01/28 11:11:52;;;;;;;13.85;11.00;;;;;;;-0.39;100.00;96545.75;5096586;28;24448;-73
2023/01/28 11:14:21;;;;;;;11.30;10.20;;;;;;;-0.24;100.00;96542.22;5094114;28;24449;-73
2023/01/28 11:16:47;;;;;;;11.98;10.77;;;;;;;-0.23;100.00;96543.91;5098476;28;24822;-74
2023/01/28 11:19:15;;;;;;;11.20;9.93;;;;;;;-0.20;100.00;96537.97;5099049;28;24970;-72
2023/01/28 11:21:49;;;;;;;13.23;10.38;;;;;;;-0.28;100.00;96541.41;5100244;28;24437;-74
2023/01/28 11:24:21;;;;;;;12.25;10.15;;;;;;;-0.26;100.00;96537.16;5093957;28;24442;-74
2023/01/28 11:26:50;;;;;;;10.93;9.75;;;;;;;-0.12;100.00;96542.13;5094358;28;24441;-73
2023/01/28 11:29:27;;;;;;;11.95;9.88;;;;;;;-0.10;100.00;96544.66;5098752;28;24441;-73
2023/01/28 11:31:54;;;;;;;11.23;10.13;;;;;;;-0.11;100.00;96542.97;5091955;28;24952;-74
2023/01/28 11:34:25;;;;;;;11.38;10.18;;;;;;;0.06;100.00;96541.13;5092143;28;24436;-73
2023/01/28 11:36:54;;;;;;;10.60;9.55;;;;;;;0.21;100.00;96538.41;5096956;28;24422;-74
2023/01/28 11:39:24;;;;;;;12.90;10.00;;;;;;;-0.14;100.00;96536.22;5093140;28;24437;-73
2023/01/28 11:41:52;;;;;;;12.25;10.48;;;;;;;-0.27;100.00;96539.72;5093164;28;24430;-73
2023/01/28 11:44:21;;;;;;;13.83;11.33;;;;;;;-0.30;100.00;96538.06;5095005;28;24437;-73
2023/01/28 11:47:00;;;;;;;11.27;10.15;;;;;;;-0.37;100.00;96543.16;5096968;28;24430;-74
2023/01/28 11:49:38;;;;;;;16.65;12.07;;;;;;;-0.25;100.00;96543.09;5094973;28;24433;-73
2023/01/28 11:52:13;;;;;;;12.43;11.13;;;;;;;-0.15;100.00;96539.63;5082792;28;24783;-74
2023/01/28 11:54:53;;;;;;;13.98;12.02;;;;;;;-0.01;100.00;96539.47;5094773;28;24453;-73
2023/01/28 11:57:24;;;;;;;13.20;11.75;;;;;;;-0.09;100.00;96533.63;5087590;28;24449;-73